sensor_id;sensor_type;location;lat;lon;timestamp;temperature;humidity
72952;HTU21D;61102;51.956;5.878;2023-03-31T00:00:29;15.22;58.49
72952;HTU21D;61102;51.956;5.878;2023-03-31T00:02:56;15.21;58.50
72952;HTU21D;61102;51.956;5.878;2023-03-31T00:05:24;15.17;58.54
72952;HTU21D;61102;51.956;5.878;2023-03-31T00:07:54;15.61;57.40
72952;HTU21D;61102;51.956;5.878;2023-03-31T00:10:27;15.28;57.98
72952;HTU21D;61102;51.956;5.878;2023-03-31T00:12:53;15.21;58.20
72952;HTU21D;61102;51.956;5.878;2023-03-31T00:15:19;15.17;58.33
72952;HTU21D;61102;51.956;5.878;2023-03-31T00:17:45;15.13;58.49
72952;HTU21D;61102;51.956;5.878;2023-03-31T00:20:12;15.16;58.44
72952;HTU21D;61102;51.956;5.878;2023-03-31T00:22:39;15.19;58.36
72952;HTU21D;61102;51.956;5.878;2023-03-31T00:25:12;15.22;58.27
72952;HTU21D;61102;51.956;5.878;2023-03-31T00:27:42;15.70;57.03
72952;HTU21D;61102;51.956;5.878;2023-03-31T00:30:12;15.36;57.87
72952;HTU21D;61102;51.956;5.878;2023-03-31T00:32:39;15.28;58.30
72952;HTU21D;61102;51.956;5.878;2023-03-31T00:35:05;15.24;58.48
72952;HTU21D;61102;51.956;5.878;2023-03-31T00:37:31;15.24;58.51
72952;HTU21D;61102;51.956;5.878;2023-03-31T00:39:58;15.25;58.53
72952;HTU21D;61102;51.956;5.878;2023-03-31T00:42:25;15.26;58.51
72952;HTU21D;61102;51.956;5.878;2023-03-31T00:47:41;15.32;58.44
72952;HTU21D;61102;51.956;5.878;2023-03-31T00:50:43;15.41;58.70
72952;HTU21D;61102;51.956;5.878;2023-03-31T00:53:14;15.29;58.69
72952;HTU21D;61102;51.956;5.878;2023-03-31T00:55:46;15.26;58.94
72952;HTU21D;61102;51.956;5.878;2023-03-31T00:58:14;15.14;59.96
72952;HTU21D;61102;51.956;5.878;2023-03-31T01:00:48;14.99;60.43
72952;HTU21D;61102;51.956;5.878;2023-03-31T01:03:18;14.88;60.90
72952;HTU21D;61102;51.956;5.878;2023-03-31T01:06:06;14.83;61.79
72952;HTU21D;61102;51.956;5.878;2023-03-31T01:08:36;14.73;61.73
72952;HTU21D;61102;51.956;5.878;2023-03-31T01:11:09;14.64;62.53
72952;HTU21D;61102;51.956;5.878;2023-03-31T01:13:37;14.54;62.89
72952;HTU21D;61102;51.956;5.878;2023-03-31T01:16:08;14.52;63.11
72952;HTU21D;61102;51.956;5.878;2023-03-31T01:18:35;14.42;63.53
72952;HTU21D;61102;51.956;5.878;2023-03-31T01:39:20;14.35;64.53
72952;HTU21D;61102;51.956;5.878;2023-03-31T01:47:15;14.41;64.72
72952;HTU21D;61102;51.956;5.878;2023-03-31T01:49:59;14.88;63.29
72952;HTU21D;61102;51.956;5.878;2023-03-31T01:57:40;14.48;64.77
72952;HTU21D;61102;51.956;5.878;2023-03-31T02:00:13;14.44;64.80
72952;HTU21D;61102;51.956;5.878;2023-03-31T02:02:59;14.45;64.92
72952;HTU21D;61102;51.956;5.878;2023-03-31T02:05:49;14.49;64.89
72952;HTU21D;61102;51.956;5.878;2023-03-31T02:08:23;14.51;64.78
72952;HTU21D;61102;51.956;5.878;2023-03-31T02:10:52;14.49;64.64
72952;HTU21D;61102;51.956;5.878;2023-03-31T02:13:19;14.51;64.66
72952;HTU21D;61102;51.956;5.878;2023-03-31T02:15:53;14.50;64.82
72952;HTU21D;61102;51.956;5.878;2023-03-31T02:18:25;14.55;64.76
72952;HTU21D;61102;51.956;5.878;2023-03-31T02:20:57;14.55;64.63
72952;HTU21D;61102;51.956;5.878;2023-03-31T02:23:30;14.58;64.79
72952;HTU21D;61102;51.956;5.878;2023-03-31T02:26:13;14.60;64.79
72952;HTU21D;61102;51.956;5.878;2023-03-31T02:28:41;14.62;64.45
72952;HTU21D;61102;51.956;5.878;2023-03-31T02:31:12;14.59;64.56
72952;HTU21D;61102;51.956;5.878;2023-03-31T02:33:41;14.60;64.59
72952;HTU21D;61102;51.956;5.878;2023-03-31T02:36:07;14.58;64.63
72952;HTU21D;61102;51.956;5.878;2023-03-31T02:38:38;14.60;64.82
72952;HTU21D;61102;51.956;5.878;2023-03-31T02:41:06;14.59;64.72
72952;HTU21D;61102;51.956;5.878;2023-03-31T02:43:32;14.64;64.69
72952;HTU21D;61102;51.956;5.878;2023-03-31T02:45:58;14.66;64.60
72952;HTU21D;61102;51.956;5.878;2023-03-31T02:48:30;14.66;64.88
72952;HTU21D;61102;51.956;5.878;2023-03-31T02:54:00;14.67;64.72
72952;HTU21D;61102;51.956;5.878;2023-03-31T03:02:25;14.52;65.20
72952;HTU21D;61102;51.956;5.878;2023-03-31T03:16:02;14.39;65.37
72952;HTU21D;61102;51.956;5.878;2023-03-31T03:18:30;14.36;65.27
72952;HTU21D;61102;51.956;5.878;2023-03-31T03:20:56;14.32;65.37
72952;HTU21D;61102;51.956;5.878;2023-03-31T03:23:22;14.29;65.45
72952;HTU21D;61102;51.956;5.878;2023-03-31T03:25:48;14.27;65.50
72952;HTU21D;61102;51.956;5.878;2023-03-31T03:28:14;14.29;65.52
72952;HTU21D;61102;51.956;5.878;2023-03-31T03:30:40;14.30;65.54
72952;HTU21D;61102;51.956;5.878;2023-03-31T03:33:06;14.30;65.56
72952;HTU21D;61102;51.956;5.878;2023-03-31T03:35:33;14.32;65.57
72952;HTU21D;61102;51.956;5.878;2023-03-31T03:37:59;14.36;65.51
72952;HTU21D;61102;51.956;5.878;2023-03-31T03:40:25;14.37;65.54
72952;HTU21D;61102;51.956;5.878;2023-03-31T03:42:51;14.36;65.59
72952;HTU21D;61102;51.956;5.878;2023-03-31T03:45:17;14.37;65.69
72952;HTU21D;61102;51.956;5.878;2023-03-31T03:47:43;14.37;65.72
72952;HTU21D;61102;51.956;5.878;2023-03-31T03:50:09;14.36;65.82
72952;HTU21D;61102;51.956;5.878;2023-03-31T03:52:36;14.36;65.84
72952;HTU21D;61102;51.956;5.878;2023-03-31T03:55:02;14.35;65.90
72952;HTU21D;61102;51.956;5.878;2023-03-31T03:57:28;14.33;65.95
72952;HTU21D;61102;51.956;5.878;2023-03-31T03:59:55;14.32;66.10
72952;HTU21D;61102;51.956;5.878;2023-03-31T04:02:21;14.26;66.27
72952;HTU21D;61102;51.956;5.878;2023-03-31T04:04:47;14.24;66.39
72952;HTU21D;61102;51.956;5.878;2023-03-31T04:07:13;14.22;66.48
72952;HTU21D;61102;51.956;5.878;2023-03-31T04:09:39;14.25;66.48
72952;HTU21D;61102;51.956;5.878;2023-03-31T04:12:05;14.24;66.56
72952;HTU21D;61102;51.956;5.878;2023-03-31T04:14:31;14.21;66.62
72952;HTU21D;61102;51.956;5.878;2023-03-31T04:16:57;14.22;66.72
72952;HTU21D;61102;51.956;5.878;2023-03-31T04:19:23;14.19;66.91
72952;HTU21D;61102;51.956;5.878;2023-03-31T04:21:51;14.12;67.10
72952;HTU21D;61102;51.956;5.878;2023-03-31T04:24:27;14.09;67.23
72952;HTU21D;61102;51.956;5.878;2023-03-31T04:26:59;14.06;67.49
72952;HTU21D;61102;51.956;5.878;2023-03-31T04:29:25;14.03;67.49
72952;HTU21D;61102;51.956;5.878;2023-03-31T04:31:53;14.00;67.69
72952;HTU21D;61102;51.956;5.878;2023-03-31T04:34:23;14.00;67.67
72952;HTU21D;61102;51.956;5.878;2023-03-31T04:36:52;13.98;67.77
72952;HTU21D;61102;51.956;5.878;2023-03-31T04:39:21;13.95;67.85
72952;HTU21D;61102;51.956;5.878;2023-03-31T04:41:59;13.94;67.96
72952;HTU21D;61102;51.956;5.878;2023-03-31T04:44:26;13.90;68.02
72952;HTU21D;61102;51.956;5.878;2023-03-31T04:46:52;13.91;68.07
72952;HTU21D;61102;51.956;5.878;2023-03-31T04:49:19;13.91;68.01
72952;HTU21D;61102;51.956;5.878;2023-03-31T04:51:45;13.92;68.03
72952;HTU21D;61102;51.956;5.878;2023-03-31T04:54:11;13.90;68.05
72952;HTU21D;61102;51.956;5.878;2023-03-31T04:56:37;13.91;68.05
72952;HTU21D;61102;51.956;5.878;2023-03-31T04:59:03;13.89;68.06
72952;HTU21D;61102;51.956;5.878;2023-03-31T05:01:30;13.88;68.14
72952;HTU21D;61102;51.956;5.878;2023-03-31T05:04:02;13.84;68.17
72952;HTU21D;61102;51.956;5.878;2023-03-31T05:06:29;13.83;68.17
72952;HTU21D;61102;51.956;5.878;2023-03-31T05:08:55;13.82;68.19
72952;HTU21D;61102;51.956;5.878;2023-03-31T05:11:21;13.81;68.33
72952;HTU21D;61102;51.956;5.878;2023-03-31T05:13:47;13.80;68.27
72952;HTU21D;61102;51.956;5.878;2023-03-31T05:16:13;13.80;68.17
72952;HTU21D;61102;51.956;5.878;2023-03-31T05:18:41;13.76;68.27
72952;HTU21D;61102;51.956;5.878;2023-03-31T05:21:13;13.75;68.55
72952;HTU21D;61102;51.956;5.878;2023-03-31T05:23:39;13.76;68.26
72952;HTU21D;61102;51.956;5.878;2023-03-31T05:26:05;13.76;68.30
72952;HTU21D;61102;51.956;5.878;2023-03-31T05:28:33;13.76;68.36
72952;HTU21D;61102;51.956;5.878;2023-03-31T05:31:01;13.77;68.38
72952;HTU21D;61102;51.956;5.878;2023-03-31T05:33:28;13.77;68.28
72952;HTU21D;61102;51.956;5.878;2023-03-31T05:35:54;13.78;68.30
72952;HTU21D;61102;51.956;5.878;2023-03-31T05:38:21;13.77;68.30
72952;HTU21D;61102;51.956;5.878;2023-03-31T05:40:47;13.77;68.35
72952;HTU21D;61102;51.956;5.878;2023-03-31T05:43:13;13.76;68.29
72952;HTU21D;61102;51.956;5.878;2023-03-31T05:45:39;13.76;68.39
72952;HTU21D;61102;51.956;5.878;2023-03-31T05:48:05;13.76;68.38
72952;HTU21D;61102;51.956;5.878;2023-03-31T05:50:31;13.78;68.38
72952;HTU21D;61102;51.956;5.878;2023-03-31T05:52:57;13.78;68.47
72952;HTU21D;61102;51.956;5.878;2023-03-31T05:55:24;13.80;68.42
72952;HTU21D;61102;51.956;5.878;2023-03-31T05:57:50;13.82;68.32
72952;HTU21D;61102;51.956;5.878;2023-03-31T06:00:16;13.81;68.30
72952;HTU21D;61102;51.956;5.878;2023-03-31T06:02:43;13.84;68.36
72952;HTU21D;61102;51.956;5.878;2023-03-31T06:05:09;13.85;68.26
72952;HTU21D;61102;51.956;5.878;2023-03-31T06:07:35;13.86;68.25
72952;HTU21D;61102;51.956;5.878;2023-03-31T06:10:01;13.89;68.18
72952;HTU21D;61102;51.956;5.878;2023-03-31T06:12:28;13.89;68.16
72952;HTU21D;61102;51.956;5.878;2023-03-31T06:14:54;13.92;68.13
72952;HTU21D;61102;51.956;5.878;2023-03-31T06:17:20;13.92;68.07
72952;HTU21D;61102;51.956;5.878;2023-03-31T06:19:46;13.95;68.05
72952;HTU21D;61102;51.956;5.878;2023-03-31T06:22:12;13.98;67.89
72952;HTU21D;61102;51.956;5.878;2023-03-31T06:24:38;13.99;67.90
72952;HTU21D;61102;51.956;5.878;2023-03-31T06:27:05;14.03;67.79
72952;HTU21D;61102;51.956;5.878;2023-03-31T06:29:31;14.08;67.42
72952;HTU21D;61102;51.956;5.878;2023-03-31T06:31:57;14.07;67.58
72952;HTU21D;61102;51.956;5.878;2023-03-31T06:34:23;14.08;67.37
72952;HTU21D;61102;51.956;5.878;2023-03-31T06:36:49;14.10;67.43
72952;HTU21D;61102;51.956;5.878;2023-03-31T06:39:15;14.10;67.37
72952;HTU21D;61102;51.956;5.878;2023-03-31T06:41:41;14.11;67.41
72952;HTU21D;61102;51.956;5.878;2023-03-31T06:44:08;14.14;67.49
72952;HTU21D;61102;51.956;5.878;2023-03-31T06:46:34;14.15;67.53
72952;HTU21D;61102;51.956;5.878;2023-03-31T06:49:00;14.21;67.46
72952;HTU21D;61102;51.956;5.878;2023-03-31T06:51:26;14.24;67.52
72952;HTU21D;61102;51.956;5.878;2023-03-31T06:53:52;14.25;67.38
72952;HTU21D;61102;51.956;5.878;2023-03-31T06:56:18;14.26;67.44
72952;HTU21D;61102;51.956;5.878;2023-03-31T06:58:44;14.26;67.20
72952;HTU21D;61102;51.956;5.878;2023-03-31T07:01:10;14.25;67.00
72952;HTU21D;61102;51.956;5.878;2023-03-31T07:03:36;14.26;66.97
72952;HTU21D;61102;51.956;5.878;2023-03-31T07:06:02;14.24;66.83
72952;HTU21D;61102;51.956;5.878;2023-03-31T07:08:28;14.22;66.77
72952;HTU21D;61102;51.956;5.878;2023-03-31T07:10:57;14.15;66.89
72952;HTU21D;61102;51.956;5.878;2023-03-31T07:13:24;14.15;67.04
72952;HTU21D;61102;51.956;5.878;2023-03-31T07:15:52;14.17;67.10
72952;HTU21D;61102;51.956;5.878;2023-03-31T07:18:19;14.20;67.14
72952;HTU21D;61102;51.956;5.878;2023-03-31T07:20:48;14.21;67.32
72952;HTU21D;61102;51.956;5.878;2023-03-31T07:23:18;14.22;67.22
72952;HTU21D;61102;51.956;5.878;2023-03-31T07:25:45;14.22;67.27
72952;HTU21D;61102;51.956;5.878;2023-03-31T07:28:11;14.26;67.24
72952;HTU21D;61102;51.956;5.878;2023-03-31T07:30:39;14.25;67.38
72952;HTU21D;61102;51.956;5.878;2023-03-31T07:33:06;14.26;67.32
72952;HTU21D;61102;51.956;5.878;2023-03-31T07:35:32;14.28;67.40
72952;HTU21D;61102;51.956;5.878;2023-03-31T07:37:58;14.28;67.46
72952;HTU21D;61102;51.956;5.878;2023-03-31T07:40:26;14.29;67.57
72952;HTU21D;61102;51.956;5.878;2023-03-31T07:42:53;14.28;67.46
72952;HTU21D;61102;51.956;5.878;2023-03-31T07:45:21;14.21;67.68
72952;HTU21D;61102;51.956;5.878;2023-03-31T07:47:48;14.20;67.67
72952;HTU21D;61102;51.956;5.878;2023-03-31T07:50:14;14.17;67.81
72952;HTU21D;61102;51.956;5.878;2023-03-31T07:52:41;14.19;67.72
72952;HTU21D;61102;51.956;5.878;2023-03-31T07:55:07;14.21;67.78
72952;HTU21D;61102;51.956;5.878;2023-03-31T07:57:34;14.23;67.88
72952;HTU21D;61102;51.956;5.878;2023-03-31T08:00:01;14.28;67.82
72952;HTU21D;61102;51.956;5.878;2023-03-31T08:02:39;14.27;67.83
72952;HTU21D;61102;51.956;5.878;2023-03-31T08:05:08;14.27;67.94
72952;HTU21D;61102;51.956;5.878;2023-03-31T08:07:35;14.28;68.06
72952;HTU21D;61102;51.956;5.878;2023-03-31T08:10:04;14.38;68.04
72952;HTU21D;61102;51.956;5.878;2023-03-31T08:12:30;14.44;67.94
72952;HTU21D;61102;51.956;5.878;2023-03-31T08:14:56;14.48;67.91
72952;HTU21D;61102;51.956;5.878;2023-03-31T08:17:22;14.48;67.91
72952;HTU21D;61102;51.956;5.878;2023-03-31T08:19:48;14.52;67.88
72952;HTU21D;61102;51.956;5.878;2023-03-31T08:22:16;14.60;67.91
72952;HTU21D;61102;51.956;5.878;2023-03-31T08:24:42;14.72;67.91
72952;HTU21D;61102;51.956;5.878;2023-03-31T08:27:08;14.83;67.76
72952;HTU21D;61102;51.956;5.878;2023-03-31T08:29:34;14.96;67.87
72952;HTU21D;61102;51.956;5.878;2023-03-31T08:32:01;15.07;67.39
72952;HTU21D;61102;51.956;5.878;2023-03-31T08:34:27;15.12;67.52
72952;HTU21D;61102;51.956;5.878;2023-03-31T08:36:53;15.25;67.58
72952;HTU21D;61102;51.956;5.878;2023-03-31T08:39:20;15.39;67.24
72952;HTU21D;61102;51.956;5.878;2023-03-31T08:41:57;15.46;67.40
72952;HTU21D;61102;51.956;5.878;2023-03-31T08:44:35;15.61;67.25
72952;HTU21D;61102;51.956;5.878;2023-03-31T08:47:04;15.72;67.35
72952;HTU21D;61102;51.956;5.878;2023-03-31T08:49:43;15.90;67.23
72952;HTU21D;61102;51.956;5.878;2023-03-31T08:52:22;15.95;66.84
72952;HTU21D;61102;51.956;5.878;2023-03-31T08:54:55;15.93;66.52
72952;HTU21D;61102;51.956;5.878;2023-03-31T08:57:31;16.00;66.56
72952;HTU21D;61102;51.956;5.878;2023-03-31T09:00:01;16.04;66.54
72952;HTU21D;61102;51.956;5.878;2023-03-31T09:02:53;16.16;66.69
72952;HTU21D;61102;51.956;5.878;2023-03-31T09:05:30;16.19;66.49
72952;HTU21D;61102;51.956;5.878;2023-03-31T09:10:52;16.25;66.30
72952;HTU21D;61102;51.956;5.878;2023-03-31T09:16:01;16.12;66.87
72952;HTU21D;61102;51.956;5.878;2023-03-31T09:18:34;16.11;66.68
72952;HTU21D;61102;51.956;5.878;2023-03-31T09:23:54;16.02;66.76
72952;HTU21D;61102;51.956;5.878;2023-03-31T09:28:58;15.98;66.61
72952;HTU21D;61102;51.956;5.878;2023-03-31T09:31:25;15.97;66.79
72952;HTU21D;61102;51.956;5.878;2023-03-31T09:33:56;15.99;67.05
72952;HTU21D;61102;51.956;5.878;2023-03-31T09:36:24;16.08;66.49
72952;HTU21D;61102;51.956;5.878;2023-03-31T09:38:50;16.10;66.53
72952;HTU21D;61102;51.956;5.878;2023-03-31T09:41:17;16.15;66.64
72952;HTU21D;61102;51.956;5.878;2023-03-31T09:43:45;16.18;66.30
72952;HTU21D;61102;51.956;5.878;2023-03-31T09:46:18;16.26;66.60
72952;HTU21D;61102;51.956;5.878;2023-03-31T09:48:54;16.36;66.52
72952;HTU21D;61102;51.956;5.878;2023-03-31T09:51:25;16.39;66.05
72952;HTU21D;61102;51.956;5.878;2023-03-31T09:53:57;16.37;65.50
72952;HTU21D;61102;51.956;5.878;2023-03-31T09:56:46;16.43;65.25
72952;HTU21D;61102;51.956;5.878;2023-03-31T09:59:18;16.41;65.16
72952;HTU21D;61102;51.956;5.878;2023-03-31T10:01:50;16.43;65.70
72952;HTU21D;61102;51.956;5.878;2023-03-31T10:04:21;16.49;65.45
72952;HTU21D;61102;51.956;5.878;2023-03-31T10:06:48;16.46;65.11
72952;HTU21D;61102;51.956;5.878;2023-03-31T10:09:19;16.37;64.66
72952;HTU21D;61102;51.956;5.878;2023-03-31T10:11:55;16.32;64.53
72952;HTU21D;61102;51.956;5.878;2023-03-31T10:14:32;16.30;64.56
72952;HTU21D;61102;51.956;5.878;2023-03-31T10:17:03;16.26;64.15
72952;HTU21D;61102;51.956;5.878;2023-03-31T10:19:34;16.28;64.47
72952;HTU21D;61102;51.956;5.878;2023-03-31T10:22:03;16.28;63.91
72952;HTU21D;61102;51.956;5.878;2023-03-31T10:24:38;16.19;63.25
72952;HTU21D;61102;51.956;5.878;2023-03-31T10:27:10;16.08;63.24
72952;HTU21D;61102;51.956;5.878;2023-03-31T10:29:38;16.47;61.96
72952;HTU21D;61102;51.956;5.878;2023-03-31T10:32:21;16.17;62.96
72952;HTU21D;61102;51.956;5.878;2023-03-31T10:34:49;16.17;63.50
72952;HTU21D;61102;51.956;5.878;2023-03-31T10:37:18;16.20;63.26
72952;HTU21D;61102;51.956;5.878;2023-03-31T10:39:44;16.30;63.53
72952;HTU21D;61102;51.956;5.878;2023-03-31T10:42:20;16.42;63.50
72952;HTU21D;61102;51.956;5.878;2023-03-31T10:44:46;16.54;63.23
72952;HTU21D;61102;51.956;5.878;2023-03-31T10:49:40;16.80;62.79
72952;HTU21D;61102;51.956;5.878;2023-03-31T10:54:57;17.10;62.63
72952;HTU21D;61102;51.956;5.878;2023-03-31T10:57:42;17.28;61.02
72952;HTU21D;61102;51.956;5.878;2023-03-31T11:00:31;17.48;61.50
72952;HTU21D;61102;51.956;5.878;2023-03-31T11:03:27;17.62;60.09
72952;HTU21D;61102;51.956;5.878;2023-03-31T11:06:12;17.60;60.03
72952;HTU21D;61102;51.956;5.878;2023-03-31T11:12:36;17.56;60.46
72952;HTU21D;61102;51.956;5.878;2023-03-31T11:14:36;17.56;60.72
72952;HTU21D;61102;51.956;5.878;2023-03-31T11:17:30;17.60;59.26
72952;HTU21D;61102;51.956;5.878;2023-03-31T11:22:55;17.56;60.93
72952;HTU21D;61102;51.956;5.878;2023-03-31T11:32:07;17.64;59.57
72952;HTU21D;61102;51.956;5.878;2023-03-31T11:40:11;17.36;58.64
72952;HTU21D;61102;51.956;5.878;2023-03-31T11:43:00;17.45;59.01
72952;HTU21D;61102;51.956;5.878;2023-03-31T11:46:04;17.67;58.73
72952;HTU21D;61102;51.956;5.878;2023-03-31T11:49:00;17.96;58.76
72952;HTU21D;61102;51.956;5.878;2023-03-31T11:51:41;17.99;58.50
72952;HTU21D;61102;51.956;5.878;2023-03-31T11:54:19;18.07;59.31
72952;HTU21D;61102;51.956;5.878;2023-03-31T11:56:48;18.08;56.64
72952;HTU21D;61102;51.956;5.878;2023-03-31T11:59:16;17.97;57.23
72952;HTU21D;61102;51.956;5.878;2023-03-31T12:04:41;17.84;55.87
72952;HTU21D;61102;51.956;5.878;2023-03-31T12:07:30;17.75;55.33
72952;HTU21D;61102;51.956;5.878;2023-03-31T12:12:52;17.41;56.00
72952;HTU21D;61102;51.956;5.878;2023-03-31T12:15:31;17.32;57.06
72952;HTU21D;61102;51.956;5.878;2023-03-31T12:18:12;17.38;57.90
72952;HTU21D;61102;51.956;5.878;2023-03-31T12:21:02;17.41;58.19
72952;HTU21D;61102;51.956;5.878;2023-03-31T12:23:30;17.38;58.70
72952;HTU21D;61102;51.956;5.878;2023-03-31T12:28:40;17.38;58.43
72952;HTU21D;61102;51.956;5.878;2023-03-31T12:31:13;17.30;58.35
72952;HTU21D;61102;51.956;5.878;2023-03-31T12:33:44;17.32;58.22
72952;HTU21D;61102;51.956;5.878;2023-03-31T12:47:27;16.99;57.15
72952;HTU21D;61102;51.956;5.878;2023-03-31T12:53:20;16.73;59.10
72952;HTU21D;61102;51.956;5.878;2023-03-31T12:55:54;16.63;59.44
72952;HTU21D;61102;51.956;5.878;2023-03-31T13:08:59;16.52;59.90
72952;HTU21D;61102;51.956;5.878;2023-03-31T13:14:04;16.59;59.85
72952;HTU21D;61102;51.956;5.878;2023-03-31T13:16:33;16.63;60.26
72952;HTU21D;61102;51.956;5.878;2023-03-31T13:18:59;16.76;59.99
72952;HTU21D;61102;51.956;5.878;2023-03-31T13:21:26;16.84;60.20
72952;HTU21D;61102;51.956;5.878;2023-03-31T13:23:52;16.90;60.33
72952;HTU21D;61102;51.956;5.878;2023-03-31T13:26:35;16.99;59.90
72952;HTU21D;61102;51.956;5.878;2023-03-31T13:34:48;16.67;59.83
72952;HTU21D;61102;51.956;5.878;2023-03-31T13:43:32;16.29;61.12
72952;HTU21D;61102;51.956;5.878;2023-03-31T13:46:30;16.14;61.57
72952;HTU21D;61102;51.956;5.878;2023-03-31T13:52:08;16.06;62.50
72952;HTU21D;61102;51.956;5.878;2023-03-31T13:55:11;16.01;62.93
72952;HTU21D;61102;51.956;5.878;2023-03-31T14:01:03;15.96;63.41
72952;HTU21D;61102;51.956;5.878;2023-03-31T14:03:39;15.95;62.94
72952;HTU21D;61102;51.956;5.878;2023-03-31T14:06:54;15.90;63.31
72952;HTU21D;61102;51.956;5.878;2023-03-31T14:09:28;15.84;63.63
72952;HTU21D;61102;51.956;5.878;2023-03-31T14:12:00;15.81;63.71
72952;HTU21D;61102;51.956;5.878;2023-03-31T14:14:26;15.82;63.87
72952;HTU21D;61102;51.956;5.878;2023-03-31T14:16:56;15.80;63.89
72952;HTU21D;61102;51.956;5.878;2023-03-31T14:19:35;15.82;64.05
72952;HTU21D;61102;51.956;5.878;2023-03-31T14:25:09;15.83;63.33
72952;HTU21D;61102;51.956;5.878;2023-03-31T14:27:43;15.78;63.17
72952;HTU21D;61102;51.956;5.878;2023-03-31T14:30:36;15.77;63.20
72952;HTU21D;61102;51.956;5.878;2023-03-31T14:33:29;15.83;63.25
72952;HTU21D;61102;51.956;5.878;2023-03-31T14:38:46;15.80;62.63
72952;HTU21D;61102;51.956;5.878;2023-03-31T14:41:17;15.75;63.06
72952;HTU21D;61102;51.956;5.878;2023-03-31T14:43:56;15.68;63.19
72952;HTU21D;61102;51.956;5.878;2023-03-31T14:46:23;15.62;63.66
72952;HTU21D;61102;51.956;5.878;2023-03-31T14:48:50;15.58;63.63
72952;HTU21D;61102;51.956;5.878;2023-03-31T14:51:28;15.55;64.11
72952;HTU21D;61102;51.956;5.878;2023-03-31T14:53:59;15.59;64.22
72952;HTU21D;61102;51.956;5.878;2023-03-31T14:56:37;15.57;63.83
72952;HTU21D;61102;51.956;5.878;2023-03-31T14:59:06;15.49;63.92
72952;HTU21D;61102;51.956;5.878;2023-03-31T15:01:34;15.47;64.27
72952;HTU21D;61102;51.956;5.878;2023-03-31T15:04:13;15.48;64.61
72952;HTU21D;61102;51.956;5.878;2023-03-31T15:06:41;15.46;64.43
72952;HTU21D;61102;51.956;5.878;2023-03-31T15:09:15;15.36;64.95
72952;HTU21D;61102;51.956;5.878;2023-03-31T15:11:45;15.32;65.19
72952;HTU21D;61102;51.956;5.878;2023-03-31T15:14:12;15.33;65.27
72952;HTU21D;61102;51.956;5.878;2023-03-31T15:19:18;15.42;65.43
72952;HTU21D;61102;51.956;5.878;2023-03-31T15:21:45;15.47;65.36
72952;HTU21D;61102;51.956;5.878;2023-03-31T15:24:13;15.53;65.37
72952;HTU21D;61102;51.956;5.878;2023-03-31T15:26:40;15.99;63.46
72952;HTU21D;61102;51.956;5.878;2023-03-31T15:29:18;15.71;64.71
72952;HTU21D;61102;51.956;5.878;2023-03-31T15:31:46;15.60;64.51
72952;HTU21D;61102;51.956;5.878;2023-03-31T15:34:16;15.52;64.72
72952;HTU21D;61102;51.956;5.878;2023-03-31T15:36:44;15.47;64.59
72952;HTU21D;61102;51.956;5.878;2023-03-31T15:39:12;15.44;64.72
72952;HTU21D;61102;51.956;5.878;2023-03-31T15:41:40;15.42;64.63
72952;HTU21D;61102;51.956;5.878;2023-03-31T15:47:16;15.40;64.59
72952;HTU21D;61102;51.956;5.878;2023-03-31T15:50:07;15.29;64.57
72952;HTU21D;61102;51.956;5.878;2023-03-31T15:52:48;15.26;64.89
72952;HTU21D;61102;51.956;5.878;2023-03-31T15:55:40;15.24;64.92
72952;HTU21D;61102;51.956;5.878;2023-03-31T15:58:11;15.15;65.14
72952;HTU21D;61102;51.956;5.878;2023-03-31T16:00:50;15.10;65.40
72952;HTU21D;61102;51.956;5.878;2023-03-31T16:03:25;15.04;65.65
72952;HTU21D;61102;51.956;5.878;2023-03-31T16:05:55;15.04;65.56
72952;HTU21D;61102;51.956;5.878;2023-03-31T16:08:36;15.03;65.33
72952;HTU21D;61102;51.956;5.878;2023-03-31T16:11:11;14.98;65.43
72952;HTU21D;61102;51.956;5.878;2023-03-31T16:13:41;14.96;65.42
72952;HTU21D;61102;51.956;5.878;2023-03-31T16:16:14;14.95;65.50
72952;HTU21D;61102;51.956;5.878;2023-03-31T16:18:44;14.92;65.24
72952;HTU21D;61102;51.956;5.878;2023-03-31T16:21:12;14.92;65.17
72952;HTU21D;61102;51.956;5.878;2023-03-31T16:23:41;14.88;64.98
72952;HTU21D;61102;51.956;5.878;2023-03-31T16:26:09;14.85;65.22
72952;HTU21D;61102;51.956;5.878;2023-03-31T16:28:37;14.82;65.31
72952;HTU21D;61102;51.956;5.878;2023-03-31T16:31:04;14.82;65.46
72952;HTU21D;61102;51.956;5.878;2023-03-31T16:33:30;15.27;63.81
72952;HTU21D;61102;51.956;5.878;2023-03-31T16:36:16;15.38;62.76
72952;HTU21D;61102;51.956;5.878;2023-03-31T16:38:42;14.94;63.92
72952;HTU21D;61102;51.956;5.878;2023-03-31T16:41:08;14.80;64.77
72952;HTU21D;61102;51.956;5.878;2023-03-31T16:43:35;14.71;65.11
72952;HTU21D;61102;51.956;5.878;2023-03-31T16:46:02;14.73;65.37
72952;HTU21D;61102;51.956;5.878;2023-03-31T16:48:31;14.75;65.35
72952;HTU21D;61102;51.956;5.878;2023-03-31T16:51:01;14.73;65.35
72952;HTU21D;61102;51.956;5.878;2023-03-31T16:53:29;14.68;65.54
72952;HTU21D;61102;51.956;5.878;2023-03-31T16:55:56;14.64;65.72
72952;HTU21D;61102;51.956;5.878;2023-03-31T16:58:23;14.59;65.85
72952;HTU21D;61102;51.956;5.878;2023-03-31T17:00:50;14.53;66.07
72952;HTU21D;61102;51.956;5.878;2023-03-31T17:03:16;14.45;66.19
72952;HTU21D;61102;51.956;5.878;2023-03-31T17:05:46;14.38;66.56
72952;HTU21D;61102;51.956;5.878;2023-03-31T17:08:13;14.36;66.60
72952;HTU21D;61102;51.956;5.878;2023-03-31T17:10:40;14.36;66.53
72952;HTU21D;61102;51.956;5.878;2023-03-31T17:13:07;14.29;66.72
72952;HTU21D;61102;51.956;5.878;2023-03-31T17:15:34;14.26;66.75
72952;HTU21D;61102;51.956;5.878;2023-03-31T17:18:01;14.25;66.88
72952;HTU21D;61102;51.956;5.878;2023-03-31T17:20:29;14.23;66.94
72952;HTU21D;61102;51.956;5.878;2023-03-31T17:22:55;14.23;66.88
72952;HTU21D;61102;51.956;5.878;2023-03-31T17:25:21;14.21;66.88
72952;HTU21D;61102;51.956;5.878;2023-03-31T17:27:47;14.21;66.87
72952;HTU21D;61102;51.956;5.878;2023-03-31T17:30:14;14.22;66.87
72952;HTU21D;61102;51.956;5.878;2023-03-31T17:32:40;14.22;66.85
72952;HTU21D;61102;51.956;5.878;2023-03-31T17:35:07;14.22;66.75
72952;HTU21D;61102;51.956;5.878;2023-03-31T17:37:35;14.22;66.88
72952;HTU21D;61102;51.956;5.878;2023-03-31T17:40:03;14.20;66.86
72952;HTU21D;61102;51.956;5.878;2023-03-31T17:42:32;14.20;66.82
72952;HTU21D;61102;51.956;5.878;2023-03-31T17:44:58;14.17;67.02
72952;HTU21D;61102;51.956;5.878;2023-03-31T17:47:24;14.18;67.08
72952;HTU21D;61102;51.956;5.878;2023-03-31T17:49:50;14.19;67.10
72952;HTU21D;61102;51.956;5.878;2023-03-31T17:52:16;14.19;67.13
72952;HTU21D;61102;51.956;5.878;2023-03-31T17:54:42;14.19;67.17
72952;HTU21D;61102;51.956;5.878;2023-03-31T17:57:09;14.20;67.20
72952;HTU21D;61102;51.956;5.878;2023-03-31T17:59:35;14.21;67.20
72952;HTU21D;61102;51.956;5.878;2023-03-31T18:02:01;14.21;67.27
72952;HTU21D;61102;51.956;5.878;2023-03-31T18:04:28;14.20;67.29
72952;HTU21D;61102;51.956;5.878;2023-03-31T18:06:54;14.20;67.20